Observation data for Pampa on 12/08/2019      Previous  Date       Current Mesonet Observations  Soil Data  Daily Summary Page  Observations in Plain Language
KPMS 080600Z 18005KT 05/02 A2992 RMK A01 T00530017  RH  079%=      5-min Rain = 0
KPMS 080605Z 19004KT 06/02 A2992 RMK A01 T00560019  RH  078%=      5-min Rain = 0
KPMS 080610Z 19003KT 05/02 A2992 RMK A01 T00530015  RH  078%=      5-min Rain = 0
KPMS 080615Z 19003KT 05/01 A2992 RMK A01 T00480014  RH  080%=      5-min Rain = 0
KPMS 080620Z 21005KT 05/02 A2991 RMK A01 T00490016  RH  080%=      5-min Rain = 0
KPMS 080625Z 20008KT 06/02 A2991 RMK A01 T00550017  RH  078%=      5-min Rain = 0
KPMS 080630Z 21009KT 06/02 A299 RMK A01 T00610019  RH  075%=      5-min Rain = 0
KPMS 080635Z 21011KT 07/02 A2989 RMK A01 T00670019  RH  073%=      5-min Rain = 0
KPMS 080640Z 21011KT 07/02 A2989 RMK A01 T00700019  RH  071%=      5-min Rain = 0
KPMS 080645Z 22011KT 07/02 A2988 RMK A01 T00720019  RH  070%=      5-min Rain = 0
KPMS 080650Z 22011KT 07/02 A2988 RMK A01 T00720018  RH  070%=      5-min Rain = 0
KPMS 080655Z 22010KT 07/02 A2988 RMK A01 T00730018  RH  069%=      5-min Rain = 0
KPMS 080700Z 22010G15KT 08/02 A2989 RMK A01 T00760017  RH  068%=      5-min Rain = 0
KPMS 080705Z 22010G15KT 08/02 A2988 RMK A01 T00750017  RH  068%=      5-min Rain = 0
KPMS 080710Z 22011KT 07/02 A2988 RMK A01 T00730016  RH  068%=      5-min Rain = 0
KPMS 080715Z 22010G15KT 07/02 A2988 RMK A01 T00700015  RH  069%=      5-min Rain = 0
KPMS 080720Z 22010G15KT 07/01 A2987 RMK A01 T00670014  RH  070%=      5-min Rain = 0
KPMS 080725Z 22011KT 07/01 A2988 RMK A01 T00650013  RH  071%=      5-min Rain = 0
KPMS 080730Z 24009KT 07/01 A2988 RMK A01 T00660014  RH  071%=      5-min Rain = 0
KPMS 080735Z 23010KT 07/01 A2988 RMK A01 T00700014  RH  069%=      5-min Rain = 0
KPMS 080740Z 24011KT 07/01 A2987 RMK A01 T00720014  RH  067%=      5-min Rain = 0
KPMS 080745Z 24011KT 07/01 A2987 RMK A01 T00740013  RH  066%=      5-min Rain = 0
KPMS 080750Z 24010KT 07/01 A2987 RMK A01 T00720012  RH  066%=      5-min Rain = 0
KPMS 080755Z 24010KT 07/01 A2987 RMK A01 T00720011  RH  066%=      5-min Rain = 0
KPMS 080800Z 25012KT 08/01 A2987 RMK A01 T00770010  RH  063%=      5-min Rain = 0
KPMS 080805Z 25013KT 08/01 A2986 RMK A01 T00800008  RH  061%=      5-min Rain = 0
KPMS 080810Z 25011KT 08/01 A2986 RMK A01 T00820007  RH  060%=      5-min Rain = 0
KPMS 080815Z 25012KT 08/01 A2985 RMK A01 T00820005  RH  059%=      5-min Rain = 0
KPMS 080820Z 25012KT 08/01 A2985 RMK A01 T00810005  RH  059%=      5-min Rain = 0
KPMS 080825Z 25011KT 08/01 A2985 RMK A01 T00790005  RH  060%=      5-min Rain = 0
KPMS 080830Z 25012KT 08/00 A2986 RMK A01 T00770004  RH  061%=      5-min Rain = 0
KPMS 080835Z 26010KT 08/00 A2986 RMK A01 T00760004  RH  061%=      5-min Rain = 0
KPMS 080840Z 26010G15KT 08/00 A2986 RMK A01 T00780003  RH  060%=      5-min Rain = 0
KPMS 080845Z 26010KT 08/00 A2986 RMK A01 T00800003  RH  059%=      5-min Rain = 0
KPMS 080850Z 27010G15KT 08/00 A2986 RMK A01 T00800003  RH  059%=      5-min Rain = 0
KPMS 080855Z 27010KT 08/00 A2986 RMK A01 T00770003  RH  060%=      5-min Rain = 0
KPMS 080900Z 27010KT 07/00 A2985 RMK A01 T00730003  RH  062%=      5-min Rain = 0
KPMS 080905Z 27009KT 07/00 A2986 RMK A01 T00720003  RH  063%=      5-min Rain = 0
KPMS 080910Z 27009KT 07/00 A2986 RMK A01 T00720003  RH  062%=      5-min Rain = 0
KPMS 080915Z 27010KT 07/00 A2986 RMK A01 T00740004  RH  062%=      5-min Rain = 0
KPMS 080920Z 25012KT 08/00 A2986 RMK A01 T00820002  RH  058%=      5-min Rain = 0
KPMS 080925Z 25012KT 09/00 A2986 RMK A01 T00860002  RH  056%=      5-min Rain = 0
KPMS 080930Z 25013KT 09/00 A2986 RMK A01 T00880002  RH  055%=      5-min Rain = 0
KPMS 080935Z 25013KT 09/00 A2986 RMK A01 T00910002  RH  054%=      5-min Rain = 0
KPMS 080940Z 25012KT 09/00 A2986 RMK A01 T00910002  RH  054%=      5-min Rain = 0
KPMS 080945Z 26013G18KT 10/00 A2986 RMK A01 T00950002  RH  053%=      5-min Rain = 0
KPMS 080950Z 26013KT 10/00 A2986 RMK A01 T01000002  RH  051%=      5-min Rain = 0
KPMS 080955Z 26013KT 10/00 A2986 RMK A01 T01040002  RH  050%=      5-min Rain = 0
KPMS 081000Z 27011KT 11/00 A2986 RMK A01 T01060002  RH  049%=      5-min Rain = 0
KPMS 081005Z 27010KT 11/00 A2985 RMK A01 T01070003  RH  049%=      5-min Rain = 0
KPMS 081010Z 27011KT 11/00 A2985 RMK A01 T01080003  RH  049%=      5-min Rain = 0
KPMS 081015Z 27011G16KT 11/00 A2985 RMK A01 T01080003  RH  049%=      5-min Rain = 0
KPMS 081020Z 27009KT 11/00 A2984 RMK A01 T01070004  RH  049%=      5-min Rain = 0
KPMS 081025Z 27009KT 11/00 A2984 RMK A01 T01060004  RH  050%=      5-min Rain = 0
KPMS 081030Z 27009G14KT 11/00 A2984 RMK A01 T01060004  RH  050%=      5-min Rain = 0
KPMS 081035Z 27009KT 11/00 A2984 RMK A01 T01050004  RH  050%=      5-min Rain = 0
KPMS 081040Z 27009KT 10/01 A2984 RMK A01 T01020005  RH  051%=      5-min Rain = 0
KPMS 081045Z 27010KT 10/01 A2984 RMK A01 T01030005  RH  051%=      5-min Rain = 0
KPMS 081050Z 27009KT 10/00 A2983 RMK A01 T01020004  RH  051%=      5-min Rain = 0
KPMS 081055Z 27008KT 10/00 A2983 RMK A01 T01010004  RH  052%=      5-min Rain = 0
KPMS 081100Z 27008KT 10/00 A2983 RMK A01 T01000003  RH  052%=      5-min Rain = 0
KPMS 081105Z 26008KT 10/00 A2983 RMK A01 T01010003  RH  051%=      5-min Rain = 0
KPMS 081110Z 27009KT 10/00 A2983 RMK A01 T01010004  RH  051%=      5-min Rain = 0
KPMS 081115Z 28009KT 10/00 A2982 RMK A01 T00990003  RH  052%=      5-min Rain = 0
KPMS 081120Z 28008KT 10/00 A2982 RMK A01 T00990003  RH  052%=      5-min Rain = 0
KPMS 081125Z 28006KT 10/00 A2982 RMK A01 T00990003  RH  052%=      5-min Rain = 0
KPMS 081130Z 28007KT 10/00 A2982 RMK A01 T00980002  RH  052%=      5-min Rain = 0
KPMS 081135Z 28007KT 10/00 A2982 RMK A01 T00970003  RH  053%=      5-min Rain = 0
KPMS 081140Z 28007KT 10/00 A2982 RMK A01 T00950003  RH  053%=      5-min Rain = 0
KPMS 081145Z 28007KT 10/00 A2982 RMK A01 T00950003  RH  053%=      5-min Rain = 0
KPMS 081150Z 28007KT 09/00 A2982 RMK A01 T00940004  RH  054%=      5-min Rain = 0
KPMS 081155Z 28008KT 10/00 A2982 RMK A01 T00950003  RH  053%=      5-min Rain = 0
KPMS 081200Z 28009KT 10/00 A2982 RMK A01 T00960004  RH  053%=      5-min Rain = 0
KPMS 081205Z 27008KT 09/01 A2982 RMK A01 T00940005  RH  054%=      5-min Rain = 0
KPMS 081210Z 27009KT 09/01 A2983 RMK A01 T00930005  RH  055%=      5-min Rain = 0
KPMS 081215Z 27009KT 10/00 A2983 RMK A01 T00950004  RH  054%=      5-min Rain = 0
KPMS 081220Z 27008KT 09/01 A2983 RMK A01 T00930005  RH  055%=      5-min Rain = 0
KPMS 081225Z 27009KT 09/01 A2982 RMK A01 T00920006  RH  056%=      5-min Rain = 0
KPMS 081230Z 28007KT 09/01 A2982 RMK A01 T00920006  RH  055%=      5-min Rain = 0
KPMS 081235Z 27007KT 09/01 A2982 RMK A01 T00920006  RH  056%=      5-min Rain = 0
KPMS 081240Z 27007KT 09/01 A2982 RMK A01 T00910006  RH  056%=      5-min Rain = 0
KPMS 081245Z 27008KT 09/01 A2982 RMK A01 T00920005  RH  055%=      5-min Rain = 0
KPMS 081250Z 27008KT 09/01 A2983 RMK A01 T00920005  RH  055%=      5-min Rain = 0
KPMS 081255Z 27009G14KT 09/01 A2983 RMK A01 T00930005  RH  055%=      5-min Rain = 0
KPMS 081300Z 27010KT 10/01 A2983 RMK A01 T00950005  RH  054%=      5-min Rain = 0
KPMS 081305Z 27008KT 10/01 A2983 RMK A01 T00950005  RH  054%=      5-min Rain = 0
KPMS 081310Z 27007KT 09/01 A2982 RMK A01 T00940006  RH  055%=      5-min Rain = 0
KPMS 081315Z 27008KT 09/01 A2982 RMK A01 T00930006  RH  055%=      5-min Rain = 0
KPMS 081320Z 26008KT 09/01 A2982 RMK A01 T00920006  RH  055%=      5-min Rain = 0
KPMS 081325Z 25010G15KT 09/01 A2983 RMK A01 T00940005  RH  054%=      5-min Rain = 0
KPMS 081330Z 27013G18KT 10/01 A2983 RMK A01 T00950006  RH  054%=      5-min Rain = 0
KPMS 081335Z 27011G17KT 10/01 A2983 RMK A01 T00950007  RH  055%=      5-min Rain = 0
KPMS 081340Z 28010KT 10/01 A2983 RMK A01 T00950006  RH  054%=      5-min Rain = 0
KPMS 081345Z 27010KT 10/01 A2984 RMK A01 T00950006  RH  055%=      5-min Rain = 0
KPMS 081350Z 27010KT 10/01 A2983 RMK A01 T00950006  RH  055%=      5-min Rain = 0
KPMS 081355Z 28009G14KT 10/01 A2983 RMK A01 T00960006  RH  054%=      5-min Rain = 0
KPMS 081400Z 28009KT 10/01 A2983 RMK A01 T00970006  RH  054%=      5-min Rain = 0
KPMS 081405Z 28010KT 10/01 A2982 RMK A01 T00990005  RH  053%=      5-min Rain = 0
KPMS 081410Z 28008KT 10/01 A2982 RMK A01 T00990005  RH  053%=      5-min Rain = 0
KPMS 081415Z 29006KT 10/01 A2982 RMK A01 T00980005  RH  053%=      5-min Rain = 0
KPMS 081420Z 28007KT 10/01 A2982 RMK A01 T00990006  RH  053%=      5-min Rain = 0
KPMS 081425Z 27007KT 10/01 A2982 RMK A01 T00990007  RH  053%=      5-min Rain = 0
KPMS 081430Z 27007KT 10/01 A2982 RMK A01 T00990007  RH  054%=      5-min Rain = 0
KPMS 081435Z 27007G12KT 10/01 A2983 RMK A01 T00980008  RH  054%=      5-min Rain = 0
KPMS 081440Z 27007KT 10/01 A2983 RMK A01 T00970008  RH  055%=      5-min Rain = 0
KPMS 081445Z 28008G14KT 10/01 A2982 RMK A01 T00970008  RH  054%=      5-min Rain = 0
KPMS 081450Z 28008KT 10/01 A2982 RMK A01 T00980007  RH  054%=      5-min Rain = 0
KPMS 081455Z 27007KT 10/01 A2982 RMK A01 T00990008  RH  054%=      5-min Rain = 0
KPMS 081500Z 28008KT 10/01 A2983 RMK A01 T01000008  RH  054%=      5-min Rain = 0
KPMS 081505Z 29007KT 10/01 A2983 RMK A01 T01020007  RH  053%=      5-min Rain = 0
KPMS 081510Z 29007KT 10/01 A2983 RMK A01 T01030006  RH  052%=      5-min Rain = 0
KPMS 081515Z 29007KT 10/01 A2983 RMK A01 T01040006  RH  051%=      5-min Rain = 0
KPMS 081520Z 29007KT 11/01 A2982 RMK A01 T01060006  RH  051%=      5-min Rain = 0
KPMS 081525Z 29006KT 11/01 A2982 RMK A01 T01070006  RH  050%=      5-min Rain = 0
KPMS 081530Z 29005KT 11/01 A2981 RMK A01 T01070005  RH  050%=      5-min Rain = 0
KPMS 081535Z 29005KT 11/00 A2981 RMK A01 T01080004  RH  049%=      5-min Rain = 0
KPMS 081540Z 29006KT 11/01 A2981 RMK A01 T01090005  RH  049%=      5-min Rain = 0
KPMS 081545Z 29006KT 11/01 A2982 RMK A01 T01090006  RH  049%=      5-min Rain = 0
KPMS 081550Z 28007KT 11/01 A2983 RMK A01 T01080007  RH  050%=      5-min Rain = 0
KPMS 081555Z 30008KT 11/01 A2983 RMK A01 T01090006  RH  050%=      5-min Rain = 0
KPMS 081600Z 30008KT 11/01 A2982 RMK A01 T01100006  RH  049%=      5-min Rain = 0
KPMS 081605Z 29007KT 11/01 A2982 RMK A01 T01120005  RH  048%=      5-min Rain = 0
KPMS 081610Z 29006KT 11/00 A2982 RMK A01 T01130004  RH  048%=      5-min Rain = 0
KPMS 081615Z 29006KT 12/00 A2982 RMK A01 T01150004  RH  047%=      5-min Rain = 0
KPMS 081620Z 28008KT 12/00 A2982 RMK A01 T01170004  RH  047%=      5-min Rain = 0
KPMS 081625Z 28007KT 12/01 A2982 RMK A01 T01180006  RH  047%=      5-min Rain = 0
KPMS 081630Z 29007KT 12/01 A2982 RMK A01 T01240008  RH  045%=      5-min Rain = 0
KPMS 081635Z 28008KT 13/01 A2982 RMK A01 T01270006  RH  044%=      5-min Rain = 0
KPMS 081640Z 29008KT 13/01 A2981 RMK A01 T01250006  RH  045%=      5-min Rain = 0
KPMS 081645Z 29008KT 13/01 A2981 RMK A01 T01280009  RH  045%=      5-min Rain = 0
KPMS 081650Z 29008KT 13/01 A298 RMK A01 T01270008  RH  045%=      5-min Rain = 0
KPMS 081655Z 29007KT 13/01 A298 RMK A01 T01270008  RH  045%=      5-min Rain = 0
KPMS 081700Z 29008KT 13/01 A298 RMK A01 T01320007  RH  043%=      5-min Rain = 0
KPMS 081705Z 28009KT 13/00 A2979 RMK A01 T01330002  RH  041%=      5-min Rain = 0
KPMS 081710Z 29009KT 13/00 A2979 RMK A01 T01300003  RH  042%=      5-min Rain = 0
KPMS 081715Z 29008KT 13/00 A2979 RMK A01 T01330003  RH  042%=      5-min Rain = 0
KPMS 081720Z 29009KT 13/M00 A2979 RMK A01 T01321003  RH  040%=      5-min Rain = 0
KPMS 081725Z 29007KT 14/M00 A2979 RMK A01 T01381002  RH  039%=      5-min Rain = 0
KPMS 081730Z 29008KT 14/00 A2979 RMK A01 T014100-0  RH  038%=      5-min Rain = 0
KPMS 081735Z 29009KT 14/00 A2978 RMK A01 T01430001  RH  038%=      5-min Rain = 0
KPMS 081740Z 28010KT 15/00 A2978 RMK A01 T01450004  RH  038%=      5-min Rain = 0
KPMS 081745Z 29010KT 15/00 A2978 RMK A01 T01460004  RH  038%=      5-min Rain = 0
KPMS 081750Z 30010KT 15/01 A2978 RMK A01 T01470006  RH  039%=      5-min Rain = 0
KPMS 081755Z 32009KT 15/01 A2977 RMK A01 T01470005  RH  038%=      5-min Rain = 0
KPMS 081800Z 31010KT 15/01 A2976 RMK A01 T01500008  RH  038%=      5-min Rain = 0
KPMS 081805Z 30007KT 15/01 A2976 RMK A01 T01530009  RH  038%=      5-min Rain = 0
KPMS 081810Z 32008KT 16/01 A2975 RMK A01 T01550009  RH  038%=      5-min Rain = 0
KPMS 081815Z 31010KT 16/01 A2975 RMK A01 T01570008  RH  037%=      5-min Rain = 0
KPMS 081820Z 30008G13KT 16/01 A2974 RMK A01 T01590008  RH  036%=      5-min Rain = 0
KPMS 081825Z 30010KT 16/01 A2974 RMK A01 T01590007  RH  036%=      5-min Rain = 0
KPMS 081830Z 31010KT 16/01 A2974 RMK A01 T01600010  RH  036%=      5-min Rain = 0
KPMS 081835Z 32009KT 16/01 A2974 RMK A01 T01610008  RH  036%=      5-min Rain = 0
KPMS 081840Z 30010KT 17/01 A2974 RMK A01 T01650007  RH  035%=      5-min Rain = 0
KPMS 081845Z 28009KT 17/01 A2973 RMK A01 T01650006  RH  034%=      5-min Rain = 0
KPMS 081850Z 31008KT 17/01 A2973 RMK A01 T01650005  RH  034%=      5-min Rain = 0
KPMS 081855Z 30007KT 17/01 A2973 RMK A01 T01670006  RH  034%=      5-min Rain = 0
KPMS 081900Z 29006KT 17/01 A2972 RMK A01 T01680005  RH  034%=      5-min Rain = 0
KPMS 081905Z 30006KT 17/01 A2972 RMK A01 T01700007  RH  034%=      5-min Rain = 0
KPMS 081910Z 30005KT 17/01 A2972 RMK A01 T01690006  RH  034%=      5-min Rain = 0
KPMS 081915Z 28005KT 17/01 A2972 RMK A01 T01720009  RH  034%=      5-min Rain = 0
KPMS 081920Z 30006KT 17/01 A2972 RMK A01 T01740009  RH  033%=      5-min Rain = 0
KPMS 081925Z 28006KT 18/01 A2972 RMK A01 T01760010  RH  033%=      5-min Rain = 0
KPMS 081930Z 30006KT 17/01 A2972 RMK A01 T01730009  RH  033%=      5-min Rain = 0
KPMS 081935Z 28005KT 18/01 A2972 RMK A01 T01760011  RH  033%=      5-min Rain = 0
KPMS 081940Z 28007KT 18/01 A2972 RMK A01 T01790013  RH  033%=      5-min Rain = 0
KPMS 081945Z 27005KT 18/01 A2972 RMK A01 T01790013  RH  033%=      5-min Rain = 0
KPMS 081950Z 28005KT 18/01 A2971 RMK A01 T01810014  RH  033%=      5-min Rain = 0
KPMS 081955Z 29006KT 18/02 A2971 RMK A01 T01830015  RH  033%=      5-min Rain = 0
KPMS 082000Z 30006G14KT 19/02 A297 RMK A01 T01850018  RH  033%=      5-min Rain = 0
KPMS 082005Z 25010G16KT 19/02 A297 RMK A01 T01860021  RH  034%=      5-min Rain = 0
KPMS 082010Z 26009KT 19/02 A297 RMK A01 T01880024  RH  034%=      5-min Rain = 0
KPMS 082015Z 28009G14KT 19/02 A297 RMK A01 T01890022  RH  033%=      5-min Rain = 0
KPMS 082020Z 28007KT 19/02 A297 RMK A01 T01860020  RH  033%=      5-min Rain = 0
KPMS 082025Z 29005KT 19/02 A2969 RMK A01 T01860021  RH  034%=      5-min Rain = 0
KPMS 082030Z 29005KT 19/02 A2969 RMK A01 T01870020  RH  033%=      5-min Rain = 0
KPMS 082035Z 26007G12KT 19/03 A2969 RMK A01 T01900026  RH  034%=      5-min Rain = 0
KPMS 082040Z 31006KT 19/02 A2968 RMK A01 T01890024  RH  034%=      5-min Rain = 0
KPMS 082045Z 32006KT 19/02 A2968 RMK A01 T01880023  RH  034%=      5-min Rain = 0
KPMS 082050Z 31004KT 19/02 A2968 RMK A01 T01890024  RH  034%=      5-min Rain = 0
KPMS 082055Z 27006KT 19/03 A2968 RMK A01 T01910030  RH  035%=      5-min Rain = 0
KPMS 082100Z 26008KT 19/03 A2968 RMK A01 T01930033  RH  035%=      5-min Rain = 0
KPMS 082105Z 27009G15KT 19/03 A2968 RMK A01 T01930033  RH  035%=      5-min Rain = 0
KPMS 082110Z 33008KT 19/02 A2968 RMK A01 T01870023  RH  034%=      5-min Rain = 0
KPMS 082115Z 33006KT 19/02 A2968 RMK A01 T01850022  RH  034%=      5-min Rain = 0
KPMS 082120Z 33006KT 19/02 A2967 RMK A01 T01850023  RH  034%=      5-min Rain = 0
KPMS 082125Z 33005KT 19/03 A2967 RMK A01 T01870025  RH  034%=      5-min Rain = 0
KPMS 082130Z 31005KT 19/03 A2967 RMK A01 T01900027  RH  034%=      5-min Rain = 0
KPMS 082135Z 33003KT 19/03 A2967 RMK A01 T01910026  RH  034%=      5-min Rain = 0
KPMS 082140Z 27004KT 19/03 A2967 RMK A01 T01900028  RH  035%=      5-min Rain = 0
KPMS 082145Z 26010KT 19/03 A2967 RMK A01 T01940032  RH  035%=      5-min Rain = 0
KPMS 082150Z 26009KT 19/03 A2967 RMK A01 T01940033  RH  035%=      5-min Rain = 0
KPMS 082155Z 26007G13KT 19/03 A2967 RMK A01 T01940033  RH  035%=      5-min Rain = 0
KPMS 082200Z 25009KT 19/03 A2967 RMK A01 T01930031  RH  035%=      5-min Rain = 0
KPMS 082205Z 25009KT 19/03 A2967 RMK A01 T01940030  RH  034%=      5-min Rain = 0
KPMS 082210Z 25005KT 20/03 A2966 RMK A01 T01950032  RH  035%=      5-min Rain = 0
KPMS 082215Z 25005KT 19/03 A2966 RMK A01 T01940032  RH  035%=      5-min Rain = 0
KPMS 082220Z 25006KT 19/03 A2966 RMK A01 T01930032  RH  035%=      5-min Rain = 0
KPMS 082225Z 25004KT 19/03 A2966 RMK A01 T01920034  RH  036%=      5-min Rain = 0
KPMS 082230Z 25004G10KT 19/04 A2966 RMK A01 T01900035  RH  036%=      5-min Rain = 0
KPMS 082235Z 25003KT 19/04 A2966 RMK A01 T01880035  RH  037%=      5-min Rain = 0
KPMS 082240Z 25004KT 19/04 A2966 RMK A01 T01890035  RH  037%=      5-min Rain = 0
KPMS 082245Z 25005G10KT 19/03 A2966 RMK A01 T01890033  RH  036%=      5-min Rain = 0
KPMS 082250Z 25005KT 19/03 A2966 RMK A01 T01900034  RH  036%=      5-min Rain = 0
KPMS 082255Z 25005KT 19/04 A2966 RMK A01 T01890035  RH  037%=      5-min Rain = 0
KPMS 082300Z 26007KT 19/04 A2966 RMK A01 T01870037  RH  038%=      5-min Rain = 0
KPMS 082305Z 26006KT 18/04 A2967 RMK A01 T01830040  RH  039%=      5-min Rain = 0
KPMS 082310Z 27005KT 18/04 A2967 RMK A01 T01770042  RH  041%=      5-min Rain = 0
KPMS 082315Z 26006KT 18/04 A2967 RMK A01 T01760042  RH  042%=      5-min Rain = 0
KPMS 082320Z 25011KT 18/04 A2967 RMK A01 T01790040  RH  040%=      5-min Rain = 0
KPMS 082325Z 25013G20KT 18/04 A2966 RMK A01 T01800038  RH  040%=      5-min Rain = 0
KPMS 082330Z 25012G17KT 18/04 A2966 RMK A01 T01780038  RH  040%=      5-min Rain = 0
KPMS 082335Z 25013KT 18/04 A2967 RMK A01 T01750037  RH  040%=      5-min Rain = 0
KPMS 082340Z 24013G18KT 17/04 A2966 RMK A01 T01740036  RH  040%=      5-min Rain = 0
KPMS 082345Z 25012G19KT 17/04 A2966 RMK A01 T01720035  RH  041%=      5-min Rain = 0
KPMS 082350Z 24013G19KT 17/03 A2966 RMK A01 T01700034  RH  041%=      5-min Rain = 0
KPMS 082355Z 25014G20KT 17/03 A2966 RMK A01 T01710032  RH  040%=      5-min Rain = 0
KPMS 090000Z 25013KT 17/03 A2966 RMK A01 T01700032  RH  040%=      5-min Rain = 0
KPMS 090005Z 25014KT 17/03 A2966 RMK A01 T01690031  RH  040%=      5-min Rain = 0
KPMS 090010Z 25013G18KT 17/03 A2966 RMK A01 T01680031  RH  041%=      5-min Rain = 0
KPMS 090015Z 25013KT 17/03 A2966 RMK A01 T01670031  RH  041%=      5-min Rain = 0
KPMS 090020Z 25013G18KT 16/03 A2966 RMK A01 T01640031  RH  042%=      5-min Rain = 0
KPMS 090025Z 24012G18KT 16/03 A2966 RMK A01 T01610031  RH  042%=      5-min Rain = 0
KPMS 090030Z 24011G16KT 16/03 A2967 RMK A01 T01590031  RH  043%=      5-min Rain = 0
KPMS 090035Z 24011KT 16/03 A2966 RMK A01 T01580032  RH  043%=      5-min Rain = 0
KPMS 090040Z 24009G14KT 15/03 A2966 RMK A01 T01540032  RH  045%=      5-min Rain = 0
KPMS 090045Z 23008G13KT 15/03 A2967 RMK A01 T01490032  RH  046%=      5-min Rain = 0
KPMS 090050Z 23009G14KT 14/03 A2967 RMK A01 T01440032  RH  048%=      5-min Rain = 0
KPMS 090055Z 23009KT 14/03 A2967 RMK A01 T01440032  RH  048%=      5-min Rain = 0
KPMS 090100Z 23009KT 14/03 A2967 RMK A01 T01420033  RH  049%=      5-min Rain = 0
KPMS 090105Z 24012G19KT 14/03 A2966 RMK A01 T01440033  RH  048%=      5-min Rain = 0
KPMS 090110Z 24013G19KT 15/03 A2966 RMK A01 T01450032  RH  047%=      5-min Rain = 0
KPMS 090115Z 24014KT 15/03 A2967 RMK A01 T01460032  RH  047%=      5-min Rain = 0
KPMS 090120Z 24012G17KT 15/03 A2967 RMK A01 T01470031  RH  046%=      5-min Rain = 0
KPMS 090125Z 24013KT 15/03 A2967 RMK A01 T01480031  RH  046%=      5-min Rain = 0
KPMS 090130Z 24014G21KT 15/03 A2967 RMK A01 T01480030  RH  046%=      5-min Rain = 0
KPMS 090135Z 25016G22KT 15/03 A2967 RMK A01 T01500029  RH  045%=      5-min Rain = 0
KPMS 090140Z 24016G25KT 15/03 A2967 RMK A01 T01510028  RH  045%=      5-min Rain = 0
KPMS 090145Z 24015G22KT 15/03 A2967 RMK A01 T01500028  RH  045%=      5-min Rain = 0
KPMS 090150Z 24013G18KT 15/03 A2967 RMK A01 T01460028  RH  046%=      5-min Rain = 0
KPMS 090155Z 24015G20KT 15/03 A2967 RMK A01 T01450028  RH  046%=      5-min Rain = 0
KPMS 090200Z 24014G20KT 14/03 A2967 RMK A01 T01430028  RH  047%=      5-min Rain = 0
KPMS 090205Z 25015G22KT 14/03 A2967 RMK A01 T01430028  RH  047%=      5-min Rain = 0
KPMS 090210Z 25016G23KT 14/03 A2967 RMK A01 T01440028  RH  046%=      5-min Rain = 0
KPMS 090215Z 25016G22KT 14/03 A2967 RMK A01 T01440028  RH  046%=      5-min Rain = 0
KPMS 090220Z 24017G25KT 14/03 A2967 RMK A01 T01440028  RH  046%=      5-min Rain = 0
KPMS 090225Z 24017G25KT 14/03 A2967 RMK A01 T01430028  RH  047%=      5-min Rain = 0
KPMS 090230Z 24017KT 14/03 A2967 RMK A01 T01430028  RH  047%=      5-min Rain = 0
KPMS 090235Z 24016G22KT 14/03 A2966 RMK A01 T01410029  RH  048%=      5-min Rain = 0
KPMS 090240Z 24014G21KT 14/03 A2966 RMK A01 T01390030  RH  049%=      5-min Rain = 0
KPMS 090245Z 25016KT 14/03 A2966 RMK A01 T01370030  RH  049%=      5-min Rain = 0
KPMS 090250Z 25016G21KT 14/03 A2966 RMK A01 T01350030  RH  050%=      5-min Rain = 0
KPMS 090255Z 25016G22KT 13/03 A2966 RMK A01 T01340030  RH  050%=      5-min Rain = 0
KPMS 090300Z 25017G22KT 13/03 A2966 RMK A01 T01340030  RH  050%=      5-min Rain = 0
KPMS 090305Z 25017G24KT 13/03 A2966 RMK A01 T01340030  RH  050%=      5-min Rain = 0
KPMS 090310Z 25016G21KT 13/03 A2966 RMK A01 T01330029  RH  050%=      5-min Rain = 0
KPMS 090315Z 25016G22KT 13/03 A2966 RMK A01 T01320029  RH  050%=      5-min Rain = 0
KPMS 090320Z 25017G23KT 13/03 A2966 RMK A01 T01310029  RH  051%=      5-min Rain = 0
KPMS 090325Z 25015G20KT 13/03 A2966 RMK A01 T01300029  RH  051%=      5-min Rain = 0
KPMS 090330Z 25015G20KT 13/03 A2965 RMK A01 T01280028  RH  052%=      5-min Rain = 0
KPMS 090335Z 25016G21KT 13/03 A2966 RMK A01 T01280028  RH  052%=      5-min Rain = 0
KPMS 090340Z 25016G22KT 13/03 A2966 RMK A01 T01270028  RH  052%=      5-min Rain = 0
KPMS 090345Z 25016G24KT 13/03 A2966 RMK A01 T01260027  RH  052%=      5-min Rain = 0
KPMS 090350Z 25016G24KT 13/03 A2966 RMK A01 T01270027  RH  052%=      5-min Rain = 0
KPMS 090355Z 25015G21KT 13/03 A2966 RMK A01 T01250026  RH  052%=      5-min Rain = 0
KPMS 090400Z 25014G20KT 12/03 A2966 RMK A01 T01230027  RH  053%=      5-min Rain = 0
KPMS 090405Z 25015KT 12/03 A2966 RMK A01 T01210026  RH  053%=      5-min Rain = 0
KPMS 090410Z 25014G20KT 12/03 A2966 RMK A01 T01200026  RH  053%=      5-min Rain = 0
KPMS 090415Z 25014G19KT 12/03 A2966 RMK A01 T01190025  RH  053%=      5-min Rain = 0
KPMS 090420Z 25015G23KT 12/03 A2966 RMK A01 T01190025  RH  053%=      5-min Rain = 0
KPMS 090425Z 25015G21KT 12/03 A2965 RMK A01 T01180025  RH  053%=      5-min Rain = 0
KPMS 090430Z 25017G23KT 12/02 A2966 RMK A01 T01180024  RH  054%=      5-min Rain = 0
KPMS 090435Z 25018G24KT 12/02 A2966 RMK A01 T01170024  RH  054%=      5-min Rain = 0
KPMS 090440Z 25017G22KT 12/02 A2966 RMK A01 T01170024  RH  053%=      5-min Rain = 0
KPMS 090445Z 25017G23KT 12/02 A2966 RMK A01 T01180024  RH  053%=      5-min Rain = 0
KPMS 090450Z 25016G22KT 12/02 A2966 RMK A01 T01190024  RH  053%=      5-min Rain = 0
KPMS 090455Z 25017G22KT 12/02 A2966 RMK A01 T01200024  RH  053%=      5-min Rain = 0
KPMS 090500Z 26016KT 12/02 A2966 RMK A01 T01200024  RH  053%=      5-min Rain = 0
KPMS 090505Z 26016G22KT 12/03 A2966 RMK A01 T01200025  RH  053%=      5-min Rain = 0
KPMS 090510Z 26016G21KT 12/03 A2966 RMK A01 T01200025  RH  053%=      5-min Rain = 0
KPMS 090515Z 25016G23KT 12/03 A2966 RMK A01 T01200025  RH  053%=      5-min Rain = 0
KPMS 090520Z 26016G22KT 12/03 A2966 RMK A01 T01200025  RH  053%=      5-min Rain = 0
KPMS 090525Z 25017G24KT 12/03 A2966 RMK A01 T01190025  RH  053%=      5-min Rain = 0
KPMS 090530Z 25016G22KT 12/03 A2966 RMK A01 T01190025  RH  054%=      5-min Rain = 0
KPMS 090535Z 26015G21KT 12/03 A2966 RMK A01 T01170026  RH  054%=      5-min Rain = 0
KPMS 090540Z 26015G21KT 12/03 A2966 RMK A01 T01170026  RH  055%=      5-min Rain = 0
KPMS 090545Z 25014G20KT 12/03 A2966 RMK A01 T01170026  RH  055%=      5-min Rain = 0
KPMS 090550Z 25015G21KT 12/03 A2966 RMK A01 T01170027  RH  055%=      5-min Rain = 0
KPMS 090555Z 26016G22KT 12/03 A2966 RMK A01 T01170027  RH  055%=      5-min Rain = 0

Page generated in 0.0124 seconds.